createdAt,value
2018-04-12T00:01:15.739Z,11.72
2018-04-12T00:03:46.460Z,11.72
2018-04-12T00:06:17.398Z,11.72
2018-04-12T00:08:47.909Z,11.53
2018-04-12T00:11:18.890Z,11.46
2018-04-12T00:13:52.674Z,11.33
2018-04-12T00:16:23.383Z,11.39
2018-04-12T00:18:54.329Z,11.42
2018-04-12T00:21:25.033Z,11.43
2018-04-12T00:23:55.803Z,11.27
2018-04-12T00:26:26.537Z,11.28
2018-04-12T00:28:56.900Z,11.31
2018-04-12T00:31:27.202Z,11.28
2018-04-12T00:33:57.219Z,11.37
2018-04-12T00:36:27.238Z,11.23
2018-04-12T00:38:58.599Z,11.07
2018-04-12T00:41:29.172Z,11.03
2018-04-12T00:43:59.547Z,10.98
2018-04-12T00:46:30.172Z,10.92
2018-04-12T00:49:00.826Z,10.84
2018-04-12T00:51:31.630Z,10.92
2018-04-12T00:54:08.997Z,10.69
2018-04-12T00:56:40.509Z,10.30
2018-04-12T00:59:11.019Z,10.49
2018-04-12T01:01:41.754Z,10.57
2018-04-12T01:04:13.038Z,10.60
2018-04-12T01:06:43.403Z,10.60
2018-04-12T01:09:15.393Z,10.61
2018-04-12T01:11:45.409Z,10.65
2018-04-12T01:14:16.838Z,10.60
2018-04-12T01:16:47.278Z,10.50
2018-04-12T01:19:18.275Z,10.30
2018-04-12T01:21:49.279Z,10.24
2018-04-12T01:24:20.267Z,10.33
2018-04-12T01:26:50.854Z,10.42
2018-04-12T01:29:21.872Z,10.46
2018-04-12T01:31:53.002Z,10.19
2018-04-12T01:34:24.166Z,10.17
2018-04-12T01:36:54.800Z,10.29
2018-04-12T01:39:25.746Z,10.35
2018-04-12T01:41:56.468Z,10.27
2018-04-12T01:44:27.423Z,10.15
2018-04-12T01:46:58.502Z,10.29
2018-04-12T01:49:29.269Z,10.34
2018-04-12T01:51:59.884Z,10.32
2018-04-12T01:54:30.386Z,10.17
2018-04-12T01:57:00.688Z,10.15
2018-04-12T01:59:31.392Z,10.16
2018-04-12T02:02:02.620Z,10.17
2018-04-12T02:04:33.697Z,10.10
2018-04-12T02:07:04.541Z,10.14
2018-04-12T02:09:35.756Z,10.06
2018-04-12T02:12:06.719Z,9.82
2018-04-12T02:14:37.292Z,9.82
2018-04-12T02:17:07.879Z,9.77
2018-04-12T02:19:38.531Z,9.73
2018-04-12T02:22:09.459Z,9.72
2018-04-12T02:24:40.458Z,9.77
2018-04-12T02:27:11.151Z,9.72
2018-04-12T02:29:41.627Z,9.72
2018-04-12T02:32:12.452Z,9.72
2018-04-12T02:34:42.819Z,9.76
2018-04-12T02:37:13.243Z,9.58
2018-04-12T02:39:43.791Z,9.60
2018-04-12T02:42:14.180Z,9.67
2018-04-12T02:44:45.236Z,9.43
2018-04-12T02:47:16.189Z,9.17
2018-04-12T02:49:46.843Z,9.19
2018-04-12T02:52:17.924Z,9.30
2018-04-12T02:54:47.960Z,9.35
2018-04-12T02:57:18.127Z,9.38
2018-04-12T02:59:49.685Z,9.49
2018-04-12T03:02:19.977Z,9.13
2018-04-12T03:04:51.149Z,9.11
2018-04-12T03:07:21.641Z,8.61
2018-04-12T03:09:52.406Z,8.75
2018-04-12T03:12:22.299Z,8.84
2018-04-12T03:14:52.917Z,8.88
2018-04-12T03:17:22.949Z,9.01
2018-04-12T03:19:53.584Z,9.10
2018-04-12T03:22:24.015Z,9.13
2018-04-12T03:24:54.546Z,9.27
2018-04-12T03:27:24.771Z,9.28
2018-04-12T03:29:55.432Z,9.28
2018-04-12T03:32:25.320Z,9.24
2018-04-12T03:34:55.300Z,9.22
2018-04-12T03:37:26.094Z,9.11
2018-04-12T03:39:57.042Z,9.10
2018-04-12T03:42:27.847Z,9.14
2018-04-12T03:44:58.483Z,8.91
2018-04-12T03:47:28.894Z,8.93
2018-04-12T03:49:59.431Z,9.08
2018-04-12T03:52:29.977Z,9.26
2018-04-12T03:55:00.768Z,9.22
2018-04-12T03:57:31.484Z,9.12
2018-04-12T04:00:03.121Z,8.97
2018-04-12T04:02:33.367Z,9.16
2018-04-12T04:05:04.105Z,9.17
2018-04-12T04:07:35.179Z,9.14
2018-04-12T04:10:05.630Z,9.22
2018-04-12T04:12:36.531Z,9.17
2018-04-12T04:15:28.182Z,8.91
2018-04-12T04:18:10.467Z,8.92
2018-04-12T04:20:52.511Z,9.08
2018-04-12T04:23:22.963Z,9.25
2018-04-12T04:25:53.603Z,9.33
2018-04-12T04:28:23.443Z,9.43
2018-04-12T04:30:53.264Z,9.46
2018-04-12T04:33:23.074Z,9.35
2018-04-12T04:35:53.175Z,9.35
2018-04-12T04:38:23.009Z,9.30
2018-04-12T04:40:52.901Z,9.50
2018-04-12T04:43:22.858Z,9.67
2018-04-12T04:45:52.721Z,9.76
2018-04-12T04:48:22.559Z,9.80
2018-04-12T04:50:52.371Z,9.96
2018-04-12T04:53:22.286Z,9.99
2018-04-12T04:55:52.264Z,10.03
2018-04-12T04:58:22.050Z,10.16
2018-04-12T05:00:52.196Z,10.34
2018-04-12T05:03:22.179Z,10.56
2018-04-12T05:05:52.071Z,10.62
2018-04-12T05:08:21.887Z,10.88
2018-04-12T05:10:51.698Z,11.09
2018-04-12T05:13:21.519Z,11.40
2018-04-12T05:15:51.423Z,11.60
2018-04-12T05:18:21.344Z,11.93
2018-04-12T05:20:51.271Z,12.36
2018-04-12T05:23:21.180Z,12.56
2018-04-12T05:25:51.116Z,12.71
2018-04-12T05:28:20.892Z,13.07
2018-04-12T05:30:50.717Z,13.34
2018-04-12T05:33:20.687Z,13.55
2018-04-12T05:35:51.376Z,13.65
2018-04-12T05:38:21.168Z,13.75
2018-04-12T05:40:51.085Z,13.94
2018-04-12T05:43:21.019Z,14.07
2018-04-12T05:45:50.899Z,14.46
2018-04-12T05:48:20.731Z,14.62
2018-04-12T05:50:50.644Z,14.79
2018-04-12T05:53:20.535Z,14.75
2018-04-12T05:55:50.375Z,14.92
2018-04-12T05:58:20.186Z,15.02
2018-04-12T06:00:50.202Z,15.05
2018-04-12T06:03:20.234Z,15.29
2018-04-12T06:05:50.088Z,15.37
2018-04-12T06:08:19.951Z,15.48
2018-04-12T06:10:49.732Z,15.51
2018-04-12T06:13:19.576Z,15.81
2018-04-12T06:15:49.611Z,15.49
2018-04-12T06:18:19.509Z,15.75
2018-04-12T06:20:49.424Z,16.22
2018-04-12T06:23:19.350Z,16.59
2018-04-12T06:25:49.321Z,16.70
2018-04-12T06:28:19.171Z,17.13
2018-04-12T06:30:48.979Z,17.34
2018-04-12T06:33:18.789Z,17.28
2018-04-12T06:35:48.621Z,17.63
2018-04-12T06:38:18.538Z,17.90
2018-04-12T06:40:48.453Z,17.98
2018-04-12T06:43:18.363Z,17.88
2018-04-12T06:45:48.343Z,17.94
2018-04-12T06:48:18.187Z,18.08
2018-04-12T06:50:48.099Z,18.35
2018-04-12T06:53:18.015Z,18.27
2018-04-12T06:55:47.927Z,18.76
2018-04-12T06:58:17.735Z,18.84
2018-04-12T07:00:47.751Z,19.49
2018-04-12T07:03:17.778Z,19.50
2018-04-12T07:05:47.787Z,19.85
2018-04-12T07:08:17.709Z,19.86
2018-04-12T07:10:47.630Z,20.07
2018-04-12T07:13:17.532Z,19.97
2018-04-12T07:15:47.440Z,20.19
2018-04-12T07:18:17.264Z,20.47
2018-04-12T07:20:47.375Z,20.93
2018-04-12T07:23:17.196Z,21.06
2018-04-12T07:25:47.010Z,21.31
2018-04-12T07:28:16.937Z,21.79
2018-04-12T07:30:46.740Z,21.92
2018-04-12T07:33:16.652Z,21.86
2018-04-12T07:35:46.548Z,22.03
2018-04-12T07:38:16.383Z,22.28
2018-04-12T07:40:47.225Z,22.11
2018-04-12T07:43:17.105Z,21.89
2018-04-12T07:45:47.047Z,21.92
2018-04-12T07:48:16.866Z,22.17
2018-04-12T07:50:46.679Z,22.14
2018-04-12T07:53:16.592Z,22.69
2018-04-12T07:55:46.609Z,22.86
2018-04-12T07:58:16.385Z,22.68
2018-04-12T08:00:46.228Z,22.86
2018-04-12T08:03:16.259Z,22.99
2018-04-12T08:05:46.267Z,23.12
2018-04-12T08:08:16.080Z,23.25
2018-04-12T08:10:45.893Z,23.40
2018-04-12T08:13:15.839Z,23.12
2018-04-12T08:15:46.335Z,22.25
2018-04-12T08:18:16.250Z,22.58
2018-04-12T08:20:46.190Z,23.14
2018-04-12T08:23:16.289Z,22.85
2018-04-12T08:25:46.197Z,23.70
2018-04-12T08:28:15.912Z,24.32
2018-04-12T08:30:45.730Z,23.63
2018-04-12T08:33:15.522Z,23.80
2018-04-12T08:35:45.374Z,24.30
2018-04-12T08:38:15.368Z,24.38
2018-04-12T08:40:45.400Z,24.60
2018-04-12T08:43:16.268Z,24.40
2018-04-12T08:45:46.755Z,25.42
2018-04-12T08:48:16.577Z,25.51
2018-04-12T08:50:46.370Z,24.44
2018-04-12T08:53:16.212Z,24.23
2018-04-12T08:55:46.156Z,24.41
2018-04-12T08:58:15.928Z,24.92
2018-04-12T09:00:45.847Z,25.39
2018-04-12T09:03:15.851Z,25.82
2018-04-12T09:05:45.774Z,25.61
2018-04-12T09:08:15.584Z,25.24
2018-04-12T09:10:45.398Z,25.63
2018-04-12T09:13:15.310Z,26.09
2018-04-12T09:15:45.442Z,26.40
2018-04-12T09:18:15.324Z,26.41
2018-04-12T09:20:45.175Z,25.99
2018-04-12T09:23:15.250Z,26.25
2018-04-12T09:25:45.088Z,26.50
2018-04-12T09:28:14.908Z,26.71
2018-04-12T09:30:44.724Z,26.91
2018-04-12T09:33:14.579Z,26.88
2018-04-12T09:35:44.454Z,27.16
2018-04-12T09:38:14.370Z,27.03
2018-04-12T09:40:44.388Z,27.33
2018-04-12T09:43:14.308Z,27.10
2018-04-12T09:45:44.164Z,27.35
2018-04-12T09:48:14.028Z,27.85
2018-04-12T09:50:43.840Z,28.00
2018-04-12T09:53:13.646Z,28.12
2018-04-12T09:55:43.564Z,28.55
2018-04-12T09:58:13.386Z,28.93
2018-04-12T10:00:44.220Z,28.88
2018-04-12T10:03:14.132Z,28.35
2018-04-12T10:05:49.690Z,28.20
2018-04-12T10:08:25.121Z,28.24
2018-04-12T10:10:55.044Z,28.55
2018-04-12T10:13:24.955Z,28.87
2018-04-12T10:15:54.960Z,29.50
2018-04-12T10:18:24.984Z,29.77
2018-04-12T10:20:54.903Z,30.23
2018-04-12T10:23:24.730Z,29.70
2018-04-12T10:25:54.636Z,30.01
2018-04-12T10:28:24.441Z,30.14
2018-04-12T10:30:54.253Z,30.46
2018-04-12T10:33:24.190Z,30.87
2018-04-12T10:35:53.993Z,31.15
2018-04-12T10:38:23.806Z,31.03
2018-04-12T10:40:53.784Z,31.14
2018-04-12T10:43:23.636Z,31.41
2018-04-12T10:45:53.530Z,31.02
2018-04-12T10:48:23.469Z,31.53
2018-04-12T10:50:53.510Z,31.10
2018-04-12T10:53:23.716Z,30.99
2018-04-12T10:55:53.515Z,30.84
2018-04-12T10:58:23.403Z,31.20
2018-04-12T11:00:53.219Z,31.65
2018-04-12T11:03:23.358Z,31.77
2018-04-12T11:05:53.301Z,31.64
2018-04-12T11:08:23.188Z,32.33
2018-04-12T11:10:53.003Z,32.11
2018-04-12T11:13:23.084Z,32.32
2018-04-12T11:15:53.053Z,32.65
2018-04-12T11:18:22.999Z,32.72
2018-04-12T11:20:54.826Z,32.16
2018-04-12T11:23:24.631Z,32.32
2018-04-12T11:25:54.441Z,32.34
2018-04-12T11:28:24.368Z,32.67
2018-04-12T11:30:54.141Z,32.65
2018-04-12T11:33:23.992Z,32.85
2018-04-12T11:35:53.893Z,32.84
2018-04-12T11:38:23.820Z,32.89
2018-04-12T11:40:53.685Z,33.18
2018-04-12T11:43:23.638Z,32.80
2018-04-12T11:45:53.561Z,33.60
2018-04-12T11:48:23.379Z,33.75
2018-04-12T11:50:53.298Z,33.41
2018-04-12T11:53:23.096Z,33.01
2018-04-12T11:55:53.047Z,33.31
2018-04-12T11:58:22.897Z,33.42
2018-04-12T12:00:52.959Z,33.18
2018-04-12T12:03:23.785Z,33.32
2018-04-12T12:05:53.605Z,33.69
2018-04-12T12:08:23.422Z,33.76
2018-04-12T12:10:53.232Z,34.10
2018-04-12T12:13:23.960Z,33.98
2018-04-12T12:15:53.879Z,33.75
2018-04-12T12:18:23.788Z,33.88
2018-04-12T12:20:53.600Z,33.40
2018-04-12T12:23:31.867Z,33.21
2018-04-12T12:26:03.965Z,32.99
2018-04-12T12:28:39.798Z,33.01
2018-04-12T12:31:12.022Z,33.36
2018-04-12T12:33:42.152Z,33.22
2018-04-12T12:36:13.086Z,33.43
2018-04-12T12:38:43.889Z,33.79
2018-04-12T12:41:16.093Z,33.65
2018-04-12T12:43:48.612Z,33.04
2018-04-12T12:46:18.478Z,33.53
2018-04-12T12:48:48.377Z,32.91
2018-04-12T12:51:18.189Z,33.17
2018-04-12T12:53:49.639Z,32.52
2018-04-12T12:56:19.564Z,32.98
2018-04-12T12:58:49.383Z,33.18
2018-04-12T13:01:19.188Z,33.11
2018-04-12T13:03:48.996Z,33.25
2018-04-12T13:06:18.721Z,33.52
2018-04-12T13:08:48.630Z,32.69
2018-04-12T13:11:18.445Z,31.85
2018-04-12T13:13:48.368Z,31.66
2018-04-12T13:16:18.295Z,31.39
2018-04-12T13:18:48.166Z,31.92
2018-04-12T13:21:18.107Z,32.04
2018-04-12T13:23:48.018Z,31.96
2018-04-12T13:26:17.834Z,32.21
2018-04-12T13:28:47.640Z,32.06
2018-04-12T13:31:17.462Z,31.83
2018-04-12T13:33:47.482Z,32.01
2018-04-12T13:36:17.256Z,31.92
2018-04-12T13:38:47.094Z,31.87
2018-04-12T13:41:17.027Z,31.75
2018-04-12T13:43:46.924Z,32.05
2018-04-12T13:46:16.849Z,32.34
2018-04-12T13:48:46.758Z,32.16
2018-04-12T13:51:16.885Z,32.31
2018-04-12T13:53:46.792Z,31.80
2018-04-12T13:56:16.716Z,32.13
2018-04-12T13:58:46.508Z,32.84
2018-04-12T14:01:16.444Z,32.70
2018-04-12T14:03:46.469Z,32.28
2018-04-12T14:06:16.468Z,32.23
2018-04-12T14:08:46.292Z,32.21
2018-04-12T14:11:16.098Z,32.21
2018-04-12T14:13:45.911Z,32.63
2018-04-12T14:16:15.728Z,32.30
2018-04-12T14:18:45.508Z,32.23
2018-04-12T14:21:15.433Z,32.40
2018-04-12T14:23:45.275Z,32.65
2018-04-12T14:26:15.093Z,31.79
2018-04-12T14:28:44.901Z,31.86
2018-04-12T14:31:14.702Z,31.55
2018-04-12T14:33:44.825Z,31.98
2018-04-12T14:36:14.816Z,31.71
2018-04-12T14:38:44.674Z,31.61
2018-04-12T14:41:14.566Z,32.15
2018-04-12T14:43:44.384Z,32.25
2018-04-12T14:46:14.380Z,32.01
2018-04-12T14:48:44.212Z,31.39
2018-04-12T14:51:14.024Z,31.43
2018-04-12T14:53:43.823Z,31.70
2018-04-12T14:56:13.759Z,31.70
2018-04-12T14:58:43.544Z,31.58
2018-04-12T15:01:13.494Z,31.70
2018-04-12T15:03:43.404Z,31.72
2018-04-12T15:06:13.335Z,31.55
2018-04-12T15:08:43.333Z,31.44
2018-04-12T15:11:13.155Z,31.12
2018-04-12T15:13:43.067Z,31.09
2018-04-12T15:16:12.932Z,30.78
2018-04-12T15:18:43.508Z,30.34
2018-04-12T15:21:13.394Z,30.44
2018-04-12T15:23:43.230Z,30.68
2018-04-12T15:26:13.145Z,30.32
2018-04-12T15:28:42.973Z,30.44
2018-04-12T15:31:12.880Z,30.04
2018-04-12T15:33:42.804Z,30.36
2018-04-12T15:36:12.715Z,30.51
2018-04-12T15:38:42.529Z,30.34
2018-04-12T15:41:12.439Z,30.01
2018-04-12T15:43:42.251Z,29.65
2018-04-12T15:46:12.173Z,29.61
2018-04-12T15:48:41.972Z,29.79
2018-04-12T15:51:11.994Z,29.80
2018-04-12T15:53:41.906Z,29.47
2018-04-12T15:56:11.830Z,29.19
2018-04-12T15:58:41.800Z,29.01
2018-04-12T16:01:11.654Z,28.67
2018-04-12T16:03:41.572Z,28.23
2018-04-12T16:06:11.435Z,28.41
2018-04-12T16:08:41.528Z,28.14
2018-04-12T16:11:11.323Z,27.88
2018-04-12T16:13:41.236Z,27.41
2018-04-12T16:16:11.054Z,27.19
2018-04-12T16:18:40.863Z,26.90
2018-04-12T16:21:10.727Z,26.63
2018-04-12T16:23:40.555Z,26.47
2018-04-12T16:26:10.517Z,26.24
2018-04-12T16:28:40.322Z,25.98
2018-04-12T16:31:10.137Z,26.05
2018-04-12T16:33:39.919Z,25.72
2018-04-12T16:36:09.968Z,25.70
2018-04-12T16:38:39.888Z,25.42
2018-04-12T16:41:09.905Z,25.16
2018-04-12T16:43:39.809Z,24.86
2018-04-12T16:46:09.618Z,24.84
2018-04-12T16:48:39.540Z,24.59
2018-04-12T16:51:09.347Z,24.35
2018-04-12T16:53:39.162Z,24.07
2018-04-12T16:56:09.197Z,23.87
2018-04-12T16:58:39.098Z,23.85
2018-04-12T17:01:08.812Z,23.68
2018-04-12T17:03:38.763Z,23.60
2018-04-12T17:06:08.652Z,23.42
2018-04-12T17:08:38.450Z,23.26
2018-04-12T17:11:08.264Z,23.22
2018-04-12T17:13:38.074Z,22.93
2018-04-12T17:16:07.992Z,22.82
2018-04-12T17:18:37.785Z,22.61
2018-04-12T17:21:07.694Z,22.51
2018-04-12T17:23:37.537Z,22.30
2018-04-12T17:26:07.452Z,22.26
2018-04-12T17:28:37.266Z,22.24
2018-04-12T17:31:07.072Z,22.18
2018-04-12T17:33:36.896Z,21.99
2018-04-12T17:36:06.798Z,21.88
2018-04-12T17:38:36.617Z,21.76
2018-04-12T17:41:06.538Z,21.73
2018-04-12T17:43:36.351Z,21.69
2018-04-12T17:46:06.176Z,21.45
2018-04-12T17:48:35.969Z,21.35
2018-04-12T17:51:05.781Z,21.34
2018-04-12T17:53:35.721Z,21.34
2018-04-12T17:56:05.719Z,21.31
2018-04-12T17:58:36.562Z,21.07
2018-04-12T18:01:06.337Z,21.00
2018-04-12T18:03:36.382Z,20.93
2018-04-12T18:06:06.201Z,20.93
2018-04-12T18:08:36.017Z,20.91
2018-04-12T18:11:05.827Z,20.93
2018-04-12T18:13:35.645Z,20.91
2018-04-12T18:16:05.553Z,20.86
2018-04-12T18:18:35.579Z,20.82
2018-04-12T18:21:05.494Z,20.75
2018-04-12T18:23:35.297Z,20.75
2018-04-12T18:26:05.211Z,20.67
2018-04-12T18:28:35.027Z,20.38
2018-04-12T18:31:04.851Z,20.45
2018-04-12T18:33:34.652Z,20.35
2018-04-12T18:36:04.668Z,20.13
2018-04-12T18:38:34.501Z,19.96
2018-04-12T18:41:04.396Z,19.77
2018-04-12T18:43:34.220Z,19.53
2018-04-12T18:46:04.959Z,19.43
2018-04-12T18:48:34.826Z,19.26
2018-04-12T18:51:04.684Z,19.10
2018-04-12T18:53:34.696Z,19.02
2018-04-12T18:56:04.502Z,18.93
2018-04-12T18:58:34.324Z,18.84
2018-04-12T19:01:04.309Z,18.68
2018-04-12T19:03:35.070Z,18.58
2018-04-12T19:06:04.855Z,18.53
2018-04-12T19:08:34.806Z,18.48
2018-04-12T19:11:04.618Z,18.54
2018-04-12T19:13:34.550Z,18.47
2018-04-12T19:16:04.446Z,18.41
2018-04-12T19:18:34.357Z,18.51
2018-04-12T19:21:04.281Z,18.64
2018-04-12T19:23:34.180Z,18.60
2018-04-12T19:26:04.127Z,18.51
2018-04-12T19:28:34.021Z,18.55
2018-04-12T19:31:03.733Z,18.57
2018-04-12T19:33:33.666Z,18.63
2018-04-12T19:36:03.563Z,18.62
2018-04-12T19:38:33.475Z,18.48
2018-04-12T19:41:03.397Z,18.43
2018-04-12T19:43:33.312Z,18.54
2018-04-12T19:46:03.240Z,18.43
2018-04-12T19:48:33.138Z,18.45
2018-04-12T19:51:03.057Z,18.31
2018-04-12T19:53:32.875Z,18.35
2018-04-12T19:56:02.795Z,18.37
2018-04-12T19:58:32.605Z,18.29
2018-04-12T20:01:02.463Z,18.40
2018-04-12T20:03:32.332Z,18.42
2018-04-12T20:06:02.246Z,18.28
2018-04-12T20:08:32.151Z,18.26
2018-04-12T20:11:01.974Z,18.32
2018-04-12T20:13:31.881Z,18.34
2018-04-12T20:16:01.806Z,18.26
2018-04-12T20:18:31.687Z,18.15
2018-04-12T20:21:01.532Z,18.11
2018-04-12T20:23:31.542Z,18.18
2018-04-12T20:26:01.475Z,18.05
2018-04-12T20:28:31.377Z,18.13
2018-04-12T20:31:01.197Z,18.16
2018-04-12T20:33:31.002Z,18.24
2018-04-12T20:36:01.015Z,18.14
2018-04-12T20:38:30.939Z,18.20
2018-04-12T20:41:00.845Z,18.16
2018-04-12T20:43:30.780Z,18.14
2018-04-12T20:46:00.676Z,18.25
2018-04-12T20:48:30.506Z,18.29
2018-04-12T20:51:00.626Z,18.28
2018-04-12T20:53:30.431Z,18.22
2018-04-12T20:56:00.343Z,18.22
2018-04-12T20:58:30.260Z,18.22
2018-04-12T21:01:00.067Z,18.26
2018-04-12T21:03:29.886Z,18.22
2018-04-12T21:05:59.689Z,18.27
2018-04-12T21:08:29.516Z,18.32
2018-04-12T21:10:59.422Z,18.20
2018-04-12T21:13:29.230Z,18.18
2018-04-12T21:15:59.155Z,18.21
2018-04-12T21:18:29.190Z,18.24
2018-04-12T21:20:58.984Z,18.03
2018-04-12T21:23:28.799Z,17.60
2018-04-12T21:25:58.706Z,17.21
2018-04-12T21:28:28.529Z,17.28
2018-04-12T21:30:58.303Z,17.24
2018-04-12T21:33:28.736Z,17.25
2018-04-12T21:35:59.408Z,17.39
2018-04-12T21:38:31.165Z,17.26
2018-04-12T21:41:02.134Z,17.22
2018-04-12T21:43:32.931Z,16.94
2018-04-12T21:46:03.609Z,16.70
2018-04-12T21:48:34.091Z,16.61
2018-04-12T21:51:04.626Z,16.51
2018-04-12T21:53:35.260Z,16.44
2018-04-12T21:56:06.175Z,16.36
2018-04-12T21:58:36.592Z,16.41
2018-04-12T22:01:06.950Z,16.34
2018-04-12T22:03:37.789Z,16.26
2018-04-12T22:06:08.556Z,16.11
2018-04-12T22:08:39.192Z,16.08
2018-04-12T22:11:09.779Z,16.19
2018-04-12T22:13:40.107Z,16.16
2018-04-12T22:16:10.961Z,16.07
2018-04-12T22:18:41.984Z,16.05
2018-04-12T22:21:12.409Z,15.95
2018-04-12T22:23:43.209Z,15.98
2018-04-12T22:26:14.571Z,15.91
2018-04-12T22:28:44.917Z,15.82
2018-04-12T22:31:15.653Z,15.63
2018-04-12T22:33:46.483Z,15.56
2018-04-12T22:36:17.212Z,15.52
2018-04-12T22:38:48.151Z,15.33
2018-04-12T22:41:18.614Z,15.33
2018-04-12T22:43:50.219Z,15.39
2018-04-12T22:46:20.746Z,15.42
2018-04-12T22:48:51.183Z,15.31
2018-04-12T22:51:22.592Z,15.16
2018-04-12T22:53:53.193Z,15.16
2018-04-12T22:56:23.695Z,15.10
2018-04-12T22:58:54.441Z,15.20
2018-04-12T23:01:25.034Z,15.27
2018-04-12T23:03:55.295Z,15.23
2018-04-12T23:06:26.032Z,15.22
2018-04-12T23:08:56.471Z,15.17
2018-04-12T23:11:27.175Z,15.23
2018-04-12T23:13:58.139Z,15.14
2018-04-12T23:16:28.641Z,15.08
2018-04-12T23:18:58.798Z,14.95
2018-04-12T23:21:29.424Z,14.87
2018-04-12T23:23:59.802Z,14.81
2018-04-12T23:26:31.200Z,14.82
2018-04-12T23:29:02.202Z,14.70
2018-04-12T23:31:32.836Z,14.70
2018-04-12T23:34:03.869Z,14.70
2018-04-12T23:36:34.387Z,14.62
2018-04-12T23:39:05.277Z,14.51
2018-04-12T23:41:36.617Z,14.40
2018-04-12T23:44:07.430Z,14.20
2018-04-12T23:46:37.870Z,14.16
2018-04-12T23:49:09.123Z,14.15
2018-04-12T23:51:39.764Z,14.08
2018-04-12T23:54:10.363Z,14.05
2018-04-12T23:56:41.090Z,14.03
2018-04-12T23:59:11.823Z,14.08
